Time;durP1;ratioP1;P1;durP2;ratioP2;P2;SDS_P1;SDS_P2;PMS_P1;PMS_P2;Temp;Humidity;BMP_temperature;BMP_pressure;BME280_temperature;BME280_humidity;BME280_pressure;Samples;Min_cycle;Max_cycle;Signal;HPM_P1;HPM_P2
2022/06/26 00:01:13;;;;;;;11.15;9.00;;;21.30;99.90;;;;;;5000353;28;20045;-71
2022/06/26 00:03:41;;;;;;;10.38;9.07;;;21.30;99.90;;;;;;5004323;28;20038;-71
2022/06/26 00:06:07;;;;;;;10.73;9.23;;;21.30;99.90;;;;;;5007399;28;20041;-71
2022/06/26 00:08:32;;;;;;;10.05;9.07;;;21.30;99.90;;;;;;5005332;28;20034;-71
2022/06/26 00:10:58;;;;;;;11.77;9.40;;;21.30;99.90;;;;;;5006093;28;20042;-71
2022/06/26 00:13:24;;;;;;;13.07;10.15;;;21.30;99.90;;;;;;5003363;28;20101;-71
2022/06/26 00:15:50;;;;;;;11.52;10.43;;;21.30;99.90;;;;;;4999987;28;20046;-71
2022/06/26 00:18:17;;;;;;;10.77;9.65;;;21.30;99.90;;;;;;5004804;28;20471;-71
2022/06/26 00:20:43;;;;;;;10.57;9.55;;;21.20;99.90;;;;;;5005644;28;20104;-71
2022/06/26 00:23:09;;;;;;;10.98;9.38;;;21.20;99.90;;;;;;5006110;28;20481;-71
2022/06/26 00:25:35;;;;;;;11.70;10.38;;;21.20;99.90;;;;;;5006590;28;20104;-71
2022/06/26 00:28:00;;;;;;;16.38;9.77;;;21.20;99.90;;;;;;5007595;28;20050;-71
2022/06/26 00:30:26;;;;;;;11.18;9.93;;;21.20;99.90;;;;;;4999759;28;20045;-71
2022/06/26 00:32:52;;;;;;;11.40;10.30;;;21.20;99.90;;;;;;4994910;28;20062;-71
2022/06/26 00:35:17;;;;;;;11.43;10.32;;;21.10;99.90;;;;;;5004459;28;20072;-71
2022/06/26 00:37:43;;;;;;;12.35;10.48;;;21.10;99.90;;;;;;5006949;28;20061;-71
2022/06/26 00:40:09;;;;;;;11.95;9.77;;;21.00;99.90;;;;;;5007433;28;20050;-71
2022/06/26 00:42:35;;;;;;;13.07;10.57;;;21.00;99.90;;;;;;5005745;28;20046;-71
2022/06/26 00:45:01;;;;;;;11.07;9.93;;;21.00;99.90;;;;;;5001499;28;20054;-71
2022/06/26 00:47:27;;;;;;;11.63;10.52;;;21.00;99.90;;;;;;5004210;28;20049;-72
2022/06/26 00:49:53;;;;;;;11.73;10.57;;;21.00;99.90;;;;;;5007191;28;20499;-72
2022/06/26 00:52:20;;;;;;;11.65;10.55;;;20.90;99.90;;;;;;5008550;28;20088;-71
2022/06/26 00:54:46;;;;;;;13.43;10.80;;;20.90;99.90;;;;;;5010070;28;20505;-71
2022/06/26 00:57:12;;;;;;;11.43;10.32;;;20.90;99.90;;;;;;5010971;28;20054;-71
2022/06/26 00:59:38;;;;;;;12.15;10.85;;;20.90;99.90;;;;;;5006460;28;20042;-71
2022/06/26 01:02:04;;;;;;;12.27;10.98;;;20.90;99.90;;;;;;5004491;28;20057;-71
2022/06/26 01:04:31;;;;;;;12.43;11.03;;;20.80;99.90;;;;;;5008679;28;20382;-71
2022/06/26 01:06:57;;;;;;;11.13;9.48;;;20.80;99.90;;;;;;5005089;28;20320;-71
2022/06/26 01:09:23;;;;;;;12.27;10.98;;;20.80;99.90;;;;;;5003214;28;20038;-71
2022/06/26 01:11:50;;;;;;;12.82;11.45;;;20.80;99.90;;;;;;5009310;28;20145;-71
2022/06/26 01:14:16;;;;;;;11.93;10.70;;;20.70;99.90;;;;;;5002183;28;20053;-72
2022/06/26 01:16:42;;;;;;;12.18;11.00;;;20.80;99.90;;;;;;5005148;28;20049;-73
2022/06/26 01:19:09;;;;;;;12.90;11.33;;;20.80;99.90;;;;;;5007694;28;20088;-71
2022/06/26 01:21:35;;;;;;;13.13;11.80;;;20.70;99.90;;;;;;5008068;28;20053;-71
2022/06/26 01:24:02;;;;;;;14.95;12.13;;;20.70;99.90;;;;;;5009132;28;20053;-71
2022/06/26 01:26:29;;;;;;;13.45;11.77;;;20.70;99.90;;;;;;5008500;28;20104;-71
2022/06/26 01:28:54;;;;;;;12.27;11.13;;;20.60;99.90;;;;;;5004810;28;20039;-71
2022/06/26 01:31:20;;;;;;;14.32;12.65;;;20.60;99.90;;;;;;5004110;28;20494;-71
2022/06/26 01:33:47;;;;;;;13.57;12.13;;;20.70;99.90;;;;;;5005694;28;20092;-71
2022/06/26 01:36:12;;;;;;;15.27;12.10;;;20.60;99.90;;;;;;5008000;28;20050;-71
2022/06/26 01:38:38;;;;;;;12.98;11.75;;;20.60;99.90;;;;;;5010138;28;20619;-71
2022/06/26 01:41:04;;;;;;;13.57;12.27;;;20.60;99.90;;;;;;5010005;28;20444;-71
2022/06/26 01:43:32;;;;;;;13.27;11.98;;;20.60;99.90;;;;;;5006615;28;20042;-71
2022/06/26 01:45:59;;;;;;;13.15;11.88;;;20.40;99.90;;;;;;5004514;28;20050;-71
2022/06/26 01:48:25;;;;;;;12.65;11.45;;;20.30;99.90;;;;;;5000964;28;20504;-71
2022/06/26 01:50:53;;;;;;;12.40;11.10;;;20.30;99.90;;;;;;5009889;28;20580;-71
2022/06/26 01:53:20;;;;;;;13.93;11.88;;;20.30;99.90;;;;;;5009305;28;20042;-71
2022/06/26 01:55:46;;;;;;;13.45;12.10;;;20.30;99.90;;;;;;5007650;28;20061;-71
2022/06/26 01:58:13;;;;;;;13.60;12.18;;;20.40;99.90;;;;;;5008040;28;20774;-71
2022/06/26 02:00:41;;;;;;;14.07;12.68;;;20.40;99.90;;;;;;5000718;28;20056;-71
2022/06/26 02:03:07;;;;;;;14.13;12.75;;;20.40;99.90;;;;;;5003920;28;20112;-71
2022/06/26 02:05:33;;;;;;;14.95;12.77;;;20.40;99.90;;;;;;5002059;28;20052;-71
2022/06/26 02:07:59;;;;;;;15.73;12.98;;;20.40;99.90;;;;;;5004159;28;20058;-71
2022/06/26 02:15:56;;;;;;;15.73;12.97;;;20.30;99.90;;;;;;5004835;28;20125;-71
2022/06/26 02:18:21;;;;;;;15.07;13.55;;;20.30;99.90;;;;;;5001553;28;20472;-71
2022/06/26 02:20:47;;;;;;;15.43;13.95;;;20.30;99.90;;;;;;5003697;28;20046;-71
2022/06/26 02:23:14;;;;;;;16.85;14.43;;;20.30;99.90;;;;;;5006098;28;20790;-71
2022/06/26 02:25:41;;;;;;;18.80;16.90;;;20.30;99.90;;;;;;5008448;28;20065;-71
2022/06/26 02:28:07;;;;;;;19.30;17.30;;;20.20;99.90;;;;;;5005675;28;20053;-71
2022/06/26 02:30:36;;;;;;;24.83;17.87;;;20.20;99.90;;;;;;5002751;28;20046;-71
2022/06/26 02:33:03;;;;;;;20.00;18.00;;;20.10;99.90;;;;;;5001400;28;20335;-71
2022/06/26 02:35:29;;;;;;;20.02;17.90;;;20.10;99.90;;;;;;5009260;28;20049;-71
2022/06/26 02:37:55;;;;;;;19.98;17.90;;;20.10;99.90;;;;;;5008210;28;20492;-71
2022/06/26 02:40:22;;;;;;;20.58;18.55;;;20.10;99.90;;;;;;5007475;28;20056;-71
2022/06/26 02:42:48;;;;;;;20.83;18.88;;;20.00;99.90;;;;;;5006652;28;20049;-71
2022/06/26 02:45:14;;;;;;;20.23;18.20;;;20.00;99.90;;;;;;5006961;28;20061;-71
2022/06/26 02:47:40;;;;;;;20.30;18.33;;;19.90;99.90;;;;;;5010452;28;20041;-71
2022/06/26 02:50:09;;;;;;;20.75;18.55;;;19.90;99.90;;;;;;5024693;28;20045;-71
2022/06/26 02:52:39;;;;;;;21.65;19.50;;;19.90;99.90;;;;;;5005091;28;20065;-71
2022/06/26 02:55:05;;;;;;;20.45;18.45;;;19.90;99.90;;;;;;5001666;28;20170;-72
2022/06/26 02:57:31;;;;;;;22.27;20.17;;;19.80;99.90;;;;;;4999489;28;20057;-71
2022/06/26 02:59:57;;;;;;;21.02;19.02;;;19.80;99.90;;;;;;5005601;28;20062;-71
2022/06/26 03:02:25;;;;;;;23.40;21.02;;;19.70;99.90;;;;;;5007670;28;20081;-71
2022/06/26 03:04:52;;;;;;;20.90;19.20;;;19.70;99.90;;;;;;5007275;28;20046;-71
2022/06/26 03:07:18;;;;;;;22.45;20.27;;;19.70;99.90;;;;;;5007305;28;20128;-71
2022/06/26 03:09:44;;;;;;;24.67;22.10;;;19.70;99.90;;;;;;5009404;28;20109;-71
2022/06/26 03:12:09;;;;;;;21.88;18.95;;;19.70;99.90;;;;;;5006457;28;20137;-71
2022/06/26 03:14:35;;;;;;;22.50;20.48;;;19.70;99.90;;;;;;5008222;28;21197;-71
2022/06/26 03:17:01;;;;;;;21.02;19.10;;;19.60;99.90;;;;;;5001466;28;20044;-71
2022/06/26 03:19:27;;;;;;;20.73;18.70;;;19.60;99.90;;;;;;5000715;28;20049;-71
2022/06/26 03:21:53;;;;;;;19.45;17.50;;;19.50;99.90;;;;;;5005770;28;20041;-71
2022/06/26 03:24:19;;;;;;;18.52;16.65;;;19.50;99.90;;;;;;5007242;28;20053;-71
2022/06/26 03:26:45;;;;;;;17.95;16.25;;;19.50;99.90;;;;;;5006202;28;20042;-71
2022/06/26 03:29:11;;;;;;;16.48;14.77;;;19.40;99.90;;;;;;5007788;28;20041;-71
2022/06/26 03:31:37;;;;;;;12.97;11.67;;;19.40;99.90;;;;;;5004416;28;20238;-71
2022/06/26 03:34:03;;;;;;;14.13;11.25;;;19.40;99.90;;;;;;5006258;28;20286;-71
2022/06/26 03:36:30;;;;;;;11.77;10.57;;;19.40;99.90;;;;;;5008718;28;20120;-71
2022/06/26 03:38:56;;;;;;;12.70;11.45;;;19.30;99.90;;;;;;5003454;28;20041;-71
2022/06/26 03:41:22;;;;;;;12.18;10.60;;;19.30;99.90;;;;;;5002830;28;20147;-71
2022/06/26 03:43:48;;;;;;;13.13;10.70;;;19.30;99.90;;;;;;5005960;28;20221;-71
2022/06/26 03:46:14;;;;;;;11.67;10.50;;;19.30;99.90;;;;;;5004948;28;20041;-71
2022/06/26 03:48:43;;;;;;;11.50;10.40;;;19.30;99.90;;;;;;4996817;28;20049;-71
2022/06/26 03:51:09;;;;;;;12.02;10.73;;;19.20;99.90;;;;;;4992037;28;20057;-71
2022/06/26 03:53:35;;;;;;;12.65;10.82;;;19.20;99.90;;;;;;5006135;28;20050;-71
2022/06/26 03:56:01;;;;;;;12.38;10.45;;;19.20;99.90;;;;;;5003710;28;20045;-71
2022/06/26 03:58:27;;;;;;;11.90;10.73;;;19.20;99.90;;;;;;5005245;28;20509;-72
2022/06/26 04:00:53;;;;;;;12.48;11.20;;;19.20;99.90;;;;;;5004665;28;20069;-71
2022/06/26 04:03:19;;;;;;;12.75;10.80;;;19.20;99.90;;;;;;5006467;28;20069;-71
2022/06/26 04:05:45;;;;;;;14.27;10.38;;;19.20;99.90;;;;;;4992508;28;20045;-71
2022/06/26 04:08:11;;;;;;;12.98;11.10;;;19.20;99.90;;;;;;5005730;28;20030;-72
2022/06/26 04:10:37;;;;;;;11.80;10.13;;;19.20;99.90;;;;;;5006005;28;20037;-71
2022/06/26 04:13:05;;;;;;;11.82;10.63;;;19.10;99.90;;;;;;5006801;28;20056;-72
2022/06/26 04:15:33;;;;;;;13.23;10.05;;;19.10;99.90;;;;;;5006215;28;20540;-71
2022/06/26 04:18:00;;;;;;;12.13;10.93;;;19.10;99.90;;;;;;5003434;28;20053;-71
2022/06/26 04:20:26;;;;;;;13.40;11.40;;;19.10;99.90;;;;;;5003380;28;20037;-71
2022/06/26 04:23:04;;;;;;;12.80;10.40;;;19.10;99.90;;;;;;5005668;28;20381;-71
2022/06/26 04:25:31;;;;;;;12.02;10.55;;;19.10;99.90;;;;;;5023551;28;20046;-71
2022/06/26 04:27:57;;;;;;;12.68;10.57;;;19.10;99.90;;;;;;5009388;28;20052;-71
2022/06/26 04:30:23;;;;;;;12.15;10.95;;;19.10;99.90;;;;;;5003086;28;20083;-71
2022/06/26 04:32:49;;;;;;;10.57;9.50;;;19.10;99.90;;;;;;5009691;28;20044;-71
2022/06/26 04:35:16;;;;;;;11.80;10.05;;;19.10;99.90;;;;;;5011093;28;20070;-71
2022/06/26 04:37:42;;;;;;;10.57;9.25;;;19.10;99.90;;;;;;5008180;28;20050;-71
2022/06/26 04:40:10;;;;;;;14.10;9.63;;;19.10;99.90;;;;;;5008575;28;20045;-71
2022/06/26 04:42:37;;;;;;;10.95;9.88;;;19.10;99.90;;;;;;4999286;28;20049;-71
2022/06/26 04:45:03;;;;;;;11.48;9.05;;;19.10;99.90;;;;;;5010496;28;20046;-71
2022/06/26 04:47:28;;;;;;;10.38;9.07;;;19.10;99.90;;;;;;5005704;28;20089;-71
2022/06/26 04:49:54;;;;;;;9.60;8.13;;;19.10;99.90;;;;;;5021165;28;20053;-71
2022/06/26 04:52:20;;;;;;;10.63;9.27;;;19.20;99.90;;;;;;5006210;28;20045;-71
2022/06/26 04:54:45;;;;;;;12.70;9.38;;;19.10;99.90;;;;;;5009071;28;20396;-71
2022/06/26 04:57:12;;;;;;;9.65;8.65;;;19.20;99.90;;;;;;5009433;28;20511;-71
2022/06/26 04:59:38;;;;;;;10.43;9.37;;;19.10;99.90;;;;;;5007633;28;20037;-71
2022/06/26 05:02:05;;;;;;;11.55;8.98;;;19.10;99.90;;;;;;5006753;28;21311;-71
2022/06/26 05:04:30;;;;;;;8.07;7.25;;;19.10;99.90;;;;;;5008261;28;20061;-71
2022/06/26 05:06:57;;;;;;;7.47;6.55;;;19.10;99.90;;;;;;5009508;28;20057;-71
2022/06/26 05:09:23;;;;;;;7.88;7.07;;;19.10;99.90;;;;;;5008924;28;20431;-71
2022/06/26 05:11:49;;;;;;;8.98;6.55;;;19.20;99.90;;;;;;5009066;28;20073;-71
2022/06/26 05:14:15;;;;;;;7.35;6.53;;;19.20;99.90;;;;;;5006146;28;20088;-71
2022/06/26 05:16:41;;;;;;;7.15;6.45;;;19.30;99.90;;;;;;5007960;28;20049;-72
2022/06/26 05:19:06;;;;;;;7.45;6.40;;;19.40;99.90;;;;;;5008039;28;20073;-71
2022/06/26 05:21:32;;;;;;;7.72;6.90;;;19.50;99.90;;;;;;5006709;28;20093;-72
2022/06/26 05:23:58;;;;;;;7.68;6.72;;;19.60;99.90;;;;;;5009869;28;20077;-71
2022/06/26 05:26:24;;;;;;;8.23;6.05;;;19.70;99.90;;;;;;5008516;28;20042;-71
2022/06/26 05:28:50;;;;;;;7.55;5.72;;;19.80;99.90;;;;;;5009076;28;20040;-71
2022/06/26 05:31:16;;;;;;;6.75;5.32;;;19.90;99.90;;;;;;5005342;28;20182;-71
2022/06/26 05:33:42;;;;;;;5.85;4.85;;;20.00;99.90;;;;;;5005126;28;20052;-71
2022/06/26 05:36:08;;;;;;;7.03;5.07;;;20.10;99.90;;;;;;5023973;28;20037;-71
2022/06/26 05:38:34;;;;;;;5.78;4.70;;;20.20;99.90;;;;;;5007043;28;20049;-71
2022/06/26 05:41:00;;;;;;;5.82;5.32;;;20.20;99.90;;;;;;5008641;28;20034;-71
2022/06/26 05:43:26;;;;;;;7.13;5.57;;;20.20;99.90;;;;;;5006556;28;20056;-71
2022/06/26 05:45:52;;;;;;;7.38;6.68;;;20.30;99.90;;;;;;5004748;28;20041;-71
2022/06/26 05:48:17;;;;;;;7.07;6.38;;;20.10;99.90;;;;;;5005175;28;20125;-71
2022/06/26 05:50:43;;;;;;;8.75;6.97;;;20.10;99.90;;;;;;5007554;28;20049;-72
2022/06/26 05:53:09;;;;;;;10.43;7.75;;;20.10;99.90;;;;;;5007228;28;20049;-71
2022/06/26 05:55:34;;;;;;;9.93;8.60;;;20.10;99.90;;;;;;5008465;28;20121;-71
2022/06/26 05:58:01;;;;;;;11.40;9.52;;;20.00;99.90;;;;;;5001280;28;20058;-71
2022/06/26 06:00:27;;;;;;;10.50;9.40;;;20.00;99.90;;;;;;5007668;28;20121;-71
2022/06/26 06:02:52;;;;;;;10.95;9.88;;;20.00;99.90;;;;;;5006786;28;20148;-71
2022/06/26 06:05:18;;;;;;;13.18;10.88;;;20.00;99.90;;;;;;5006959;28;20052;-71
2022/06/26 06:07:44;;;;;;;12.70;11.40;;;20.00;99.90;;;;;;5004561;28;20420;-71
2022/06/26 06:10:09;;;;;;;11.98;10.45;;;20.10;99.90;;;;;;5010221;28;20124;-71
2022/06/26 06:12:36;;;;;;;13.23;11.82;;;20.10;99.90;;;;;;5002675;28;20041;-71
2022/06/26 06:15:03;;;;;;;12.57;11.27;;;20.20;99.90;;;;;;5003436;28;20528;-71
2022/06/26 06:17:37;;;;;;;13.52;12.00;;;20.30;99.90;;;;;;5006894;28;20069;-72
2022/06/26 06:20:15;;;;;;;13.90;11.80;;;20.30;99.90;;;;;;5009528;28;20045;-71
2022/06/26 06:22:43;;;;;;;12.00;10.85;;;20.20;99.90;;;;;;5006140;28;20090;-72
2022/06/26 06:25:09;;;;;;;13.32;12.07;;;20.20;99.90;;;;;;5006234;28;20863;-71
2022/06/26 06:27:36;;;;;;;14.07;12.77;;;20.20;99.90;;;;;;5004038;28;20429;-71
2022/06/26 06:30:03;;;;;;;14.17;12.87;;;20.20;99.90;;;;;;5005518;28;20042;-71
2022/06/26 06:32:29;;;;;;;14.48;13.07;;;20.30;99.90;;;;;;5008668;28;20042;-71
2022/06/26 06:34:55;;;;;;;14.88;13.30;;;20.20;99.90;;;;;;5007555;28;20056;-72
2022/06/26 06:37:20;;;;;;;15.40;13.55;;;20.20;99.90;;;;;;5007202;28;20042;-71
2022/06/26 06:39:46;;;;;;;15.27;13.88;;;20.20;99.90;;;;;;5007367;28;20068;-71
2022/06/26 06:42:12;;;;;;;14.18;12.88;;;20.30;99.90;;;;;;5003842;28;20046;-71
2022/06/26 06:44:38;;;;;;;13.95;12.65;;;20.20;99.90;;;;;;5004732;28;20100;-71
2022/06/26 06:47:05;;;;;;;12.25;10.95;;;20.20;99.90;;;;;;5003733;28;20037;-71
2022/06/26 06:49:30;;;;;;;11.15;10.15;;;20.20;99.90;;;;;;5007297;28;20133;-71
2022/06/26 06:51:56;;;;;;;11.10;10.00;;;20.20;99.90;;;;;;5003632;28;20124;-72
2022/06/26 06:54:22;;;;;;;10.90;9.80;;;20.20;99.90;;;;;;5009163;28;20054;-70
2022/06/26 06:56:47;;;;;;;12.70;10.05;;;20.20;99.90;;;;;;5003428;28;20042;-72
2022/06/26 06:59:13;;;;;;;11.20;10.20;;;20.20;99.90;;;;;;5006406;28;20093;-72
2022/06/26 07:01:39;;;;;;;10.85;9.85;;;20.30;99.90;;;;;;5006242;28;20124;-69
2022/06/26 07:04:07;;;;;;;11.73;10.65;;;20.30;99.90;;;;;;5004878;28;20133;-72
2022/06/26 07:06:32;;;;;;;11.80;10.70;;;20.40;99.90;;;;;;5001767;28;20097;-72
2022/06/26 07:08:58;;;;;;;12.57;11.32;;;20.40;99.90;;;;;;5007909;28;20038;-73
2022/06/26 07:11:24;;;;;;;11.13;9.98;;;20.50;99.90;;;;;;5004168;28;20060;-69
2022/06/26 07:13:50;;;;;;;11.73;10.63;;;20.50;99.90;;;;;;5007309;28;20049;-74
2022/06/26 07:16:16;;;;;;;10.82;9.85;;;20.50;99.90;;;;;;5006790;28;20095;-72
2022/06/26 07:18:41;;;;;;;11.93;10.82;;;20.50;99.90;;;;;;5002260;28;20136;-72
2022/06/26 07:21:07;;;;;;;11.27;10.18;;;20.50;99.90;;;;;;5007046;28;20038;-72
2022/06/26 07:23:33;;;;;;;10.93;9.82;;;20.40;99.90;;;;;;5009160;28;20121;-72
2022/06/26 07:25:59;;;;;;;11.15;10.02;;;20.40;99.90;;;;;;5005967;28;20120;-72
2022/06/26 07:28:25;;;;;;;12.32;11.13;;;20.50;99.90;;;;;;5021867;28;20053;-72
2022/06/26 07:30:50;;;;;;;13.68;11.02;;;20.60;99.90;;;;;;5006370;28;20041;-72
2022/06/26 07:36:00;;;;;;;12.13;10.93;;;20.80;99.90;;;;;;5007242;28;20485;-73
2022/06/26 07:38:26;;;;;;;11.70;10.50;;;20.80;99.90;;;;;;5008640;28;20045;-72
2022/06/26 07:40:52;;;;;;;11.38;10.18;;;20.80;99.90;;;;;;5005566;28;20121;-73
2022/06/26 07:43:18;;;;;;;12.90;11.70;;;21.00;99.90;;;;;;5003125;28;20049;-73
2022/06/26 07:45:43;;;;;;;12.95;11.60;;;21.20;99.90;;;;;;5007512;28;20084;-72
2022/06/26 07:48:09;;;;;;;13.35;12.05;;;21.40;99.90;;;;;;5003349;28;20141;-72
2022/06/26 07:50:35;;;;;;;14.30;12.85;;;21.60;99.90;;;;;;5003637;28;20517;-72
2022/06/26 07:53:03;;;;;;;15.00;13.52;;;21.70;99.90;;;;;;4999270;28;20129;-72
2022/06/26 07:55:29;;;;;;;15.50;14.00;;;21.60;99.90;;;;;;5000732;28;20148;-71
2022/06/26 07:57:55;;;;;;;15.07;13.68;;;21.40;99.90;;;;;;5007068;28;20054;-71
2022/06/26 08:00:21;;;;;;;14.77;13.15;;;21.20;99.90;;;;;;5009460;28;20037;-72
2022/06/26 08:02:46;;;;;;;13.32;12.13;;;21.00;99.90;;;;;;5011012;28;20042;-72
2022/06/26 08:05:12;;;;;;;13.40;12.20;;;21.00;99.90;;;;;;5011555;28;20053;-72
2022/06/26 08:07:38;;;;;;;12.20;10.98;;;21.00;99.90;;;;;;5011069;28;20731;-71
2022/06/26 08:10:04;;;;;;;15.20;13.07;;;21.10;99.90;;;;;;5015120;28;20128;-72
2022/06/26 08:12:30;;;;;;;13.30;11.95;;;21.30;99.90;;;;;;5013270;28;20052;-71
2022/06/26 08:14:56;;;;;;;13.43;11.13;;;21.50;99.90;;;;;;5013215;28;20042;-72
2022/06/26 08:17:21;;;;;;;12.38;11.18;;;21.50;99.90;;;;;;5011663;28;20657;-72
2022/06/26 08:19:48;;;;;;;12.93;10.77;;;21.40;99.90;;;;;;5015313;28;20050;-71
2022/06/26 08:22:14;;;;;;;10.10;9.10;;;21.50;99.90;;;;;;5026657;28;20038;-72
2022/06/26 08:24:41;;;;;;;9.73;8.20;;;21.50;99.90;;;;;;5011598;28;20056;-72
2022/06/26 08:27:08;;;;;;;8.68;7.72;;;21.60;99.90;;;;;;5005692;28;20362;-71
2022/06/26 08:29:35;;;;;;;8.90;7.80;;;21.60;99.90;;;;;;5008934;28;20426;-71
2022/06/26 08:32:01;;;;;;;8.35;7.50;;;21.60;99.90;;;;;;5013954;28;20485;-72
2022/06/26 08:34:27;;;;;;;8.10;5.40;;;21.60;99.90;;;;;;5013310;28;20083;-72
2022/06/26 08:36:54;;;;;;;5.43;4.90;;;21.70;99.90;;;;;;5013781;28;20456;-72
2022/06/26 08:39:20;;;;;;;6.85;4.57;;;21.70;99.90;;;;;;5012096;28;20125;-72
2022/06/26 08:41:47;;;;;;;5.35;4.45;;;21.70;99.90;;;;;;5013925;28;20499;-71
2022/06/26 08:44:13;;;;;;;5.53;4.53;;;21.70;99.90;;;;;;5012659;28;20209;-71
2022/06/26 08:46:45;;;;;;;6.13;4.95;;;21.80;99.90;;;;;;5012832;28;20081;-71
2022/06/26 08:49:14;;;;;;;5.50;4.95;;;21.80;99.90;;;;;;5012093;28;20087;-71
2022/06/26 08:51:43;;;;;;;5.53;4.70;;;21.80;99.90;;;;;;5010283;28;20049;-71
2022/06/26 08:54:10;;;;;;;3.95;3.55;;;21.80;99.90;;;;;;5011122;28;20054;-71
2022/06/26 08:56:41;;;;;;;4.32;3.92;;;21.90;99.90;;;;;;5015484;28;20366;-72
2022/06/26 08:59:12;;;;;;;5.97;5.38;;;21.90;99.90;;;;;;5011954;28;20088;-71
2022/06/26 09:01:38;;;;;;;7.65;5.07;;;22.00;99.90;;;;;;5012074;28;20045;-71
2022/06/26 09:04:05;;;;;;;5.82;4.85;;;22.00;99.90;;;;;;5010075;28;20041;-74
2022/06/26 09:06:35;;;;;;;4.60;3.40;;;22.10;99.90;;;;;;5010900;28;20080;-72
2022/06/26 09:09:14;;;;;;;4.53;3.95;;;22.10;99.90;;;;;;5012456;28;20038;-72
2022/06/26 09:11:40;;;;;;;4.97;3.40;;;22.20;99.90;;;;;;5008905;28;20046;-71
2022/06/26 09:14:06;;;;;;;6.07;4.00;;;22.20;99.90;;;;;;5010726;28;20045;-72
2022/06/26 09:16:32;;;;;;;5.20;4.13;;;22.20;99.90;;;;;;5008470;28;20041;-70
2022/06/26 09:19:08;;;;;;;5.80;4.55;;;22.30;99.90;;;;;;5009088;28;20092;-72
2022/06/26 09:21:34;;;;;;;6.53;5.47;;;22.40;99.90;;;;;;5005060;28;20041;-71
2022/06/26 09:24:00;;;;;;;5.75;4.30;;;22.50;99.90;;;;;;5010563;28;20033;-71
2022/06/26 09:26:25;;;;;;;6.15;4.70;;;22.60;99.90;;;;;;5004040;28;20092;-73
2022/06/26 09:28:51;;;;;;;7.20;4.90;;;22.60;99.90;;;;;;5021693;28;20041;-74
2022/06/26 09:31:21;;;;;;;5.40;4.30;;;22.50;99.90;;;;;;5001009;28;20541;-73
2022/06/26 09:33:47;;;;;;;5.13;4.07;;;22.60;99.90;;;;;;5009157;28;20056;-72
2022/06/26 09:36:18;;;;;;;6.25;4.65;;;22.80;99.90;;;;;;5009175;28;20037;-74
2022/06/26 09:38:49;;;;;;;4.32;3.92;;;23.00;99.90;;;;;;5010225;28;20378;-74
2022/06/26 09:41:15;;;;;;;4.85;4.20;;;23.10;99.90;;;;;;5003804;28;20049;-72
2022/06/26 09:43:43;;;;;;;6.47;4.33;;;23.30;99.90;;;;;;5007860;28;20396;-74
2022/06/26 09:46:11;;;;;;;5.20;3.75;;;23.50;99.90;;;;;;5005025;28;20050;-70
2022/06/26 09:48:37;;;;;;;7.53;4.80;;;23.70;99.90;;;;;;5003915;28;20266;-70
2022/06/26 09:51:05;;;;;;;6.82;4.53;;;23.80;99.90;;;;;;5007129;28;20045;-70
2022/06/26 09:53:31;;;;;;;5.55;4.50;;;23.80;99.90;;;;;;5004763;28;20045;-70
2022/06/26 09:55:59;;;;;;;7.25;3.90;;;23.90;99.90;;;;;;5009209;28;20081;-70
2022/06/26 09:58:26;;;;;;;4.90;3.63;;;23.90;99.90;;;;;;5009907;28;20072;-70
2022/06/26 10:06:26;;;;;;;6.40;4.00;;;23.90;99.90;;;;;;5008871;28;20041;-70
2022/06/26 10:08:57;;;;;;;6.45;4.20;;;23.90;99.90;;;;;;5001919;28;20686;-71
2022/06/26 10:11:28;;;;;;;5.07;3.75;;;23.80;99.90;;;;;;5008499;28;20045;-71
2022/06/26 10:14:21;;;;;;;4.85;3.40;;;23.80;99.90;;;;;;5005074;28;20423;-70
2022/06/26 10:17:08;;;;;;;5.13;3.65;;;23.80;99.90;;;;;;5006210;28;20457;-71
2022/06/26 10:19:43;;;;;;;5.93;3.92;;;24.00;99.90;;;;;;5009109;28;20484;-71
2022/06/26 10:22:10;;;;;;;5.18;3.22;;;24.20;99.90;;;;;;5021561;28;20042;-71
2022/06/26 10:24:46;;;;;;;4.00;3.20;;;24.30;99.90;;;;;;5006471;28;20718;-72
2022/06/26 10:27:12;;;;;;;4.07;3.33;;;24.30;99.90;;;;;;4998593;28;20049;-71
2022/06/26 10:29:40;;;;;;;5.95;3.53;;;24.20;99.90;;;;;;5024083;28;20124;-71
2022/06/26 10:32:09;;;;;;;5.43;3.55;;;24.20;99.90;;;;;;5008888;28;20034;-72
2022/06/26 10:34:36;;;;;;;6.45;3.28;;;24.20;99.80;;;;;;5009315;28;20045;-71
2022/06/26 10:37:15;;;;;;;8.13;3.70;;;24.10;99.90;;;;;;5018548;28;20042;-70
2022/06/26 10:39:44;;;;;;;5.15;3.30;;;24.00;99.20;;;;;;5002361;28;20128;-71
2022/06/26 10:45:14;;;;;;;5.18;3.55;;;23.90;99.80;;;;;;5000005;28;20049;-71
2022/06/26 10:47:51;;;;;;;3.63;3.30;;;24.00;99.90;;;;;;4996634;28;20038;-69
2022/06/26 10:50:36;;;;;;;5.05;3.30;;;24.10;99.90;;;;;;5006199;28;20866;-70
2022/06/26 10:53:20;;;;;;;4.78;3.60;;;24.00;98.80;;;;;;4997902;28;20060;-69
2022/06/26 10:55:57;;;;;;;6.82;4.03;;;24.00;99.90;;;;;;5006502;28;20490;-70
2022/06/26 10:58:31;;;;;;;5.25;3.60;;;23.90;99.90;;;;;;5001590;28;20062;-70
2022/06/26 11:01:02;;;;;;;5.50;3.80;;;23.90;99.90;;;;;;5009408;28;20085;-71
2022/06/26 11:03:30;;;;;;;6.70;4.57;;;23.80;99.90;;;;;;5006006;28;20056;-71
2022/06/26 11:06:03;;;;;;;4.70;3.33;;;23.80;99.90;;;;;;5002757;28;20069;-70
2022/06/26 11:08:35;;;;;;;5.18;3.92;;;23.80;99.90;;;;;;5007748;28;20133;-71
2022/06/26 11:11:09;;;;;;;5.28;3.70;;;24.00;99.90;;;;;;5006130;28;20511;-70
2022/06/26 11:13:47;;;;;;;5.18;3.40;;;24.10;99.90;;;;;;5004380;28;20125;-71
2022/06/26 11:16:13;;;;;;;4.25;3.70;;;24.10;99.90;;;;;;5035953;28;20037;-71
2022/06/26 11:18:39;;;;;;;4.57;3.53;;;24.20;99.90;;;;;;5004622;28;20136;-71
2022/06/26 11:21:05;;;;;;;5.10;3.22;;;24.20;99.90;;;;;;5005709;28;20784;-71
2022/06/26 11:23:32;;;;;;;4.60;2.97;;;24.30;99.50;;;;;;5009128;28;20038;-70
2022/06/26 11:26:04;;;;;;;4.40;2.72;;;24.30;99.30;;;;;;5003051;28;20145;-70
2022/06/26 11:28:44;;;;;;;4.60;3.15;;;24.40;98.90;;;;;;4997315;28;20048;-71
2022/06/26 11:31:21;;;;;;;6.00;3.17;;;24.50;98.70;;;;;;5005981;28;20073;-69
2022/06/26 11:33:46;;;;;;;;;;;24.70;99.40;;;;;;5005119;28;20097;-71
2022/06/26 11:36:14;;;;;;;5.27;3.47;;;24.70;94.90;;;;;;5005593;28;19929;-70
2022/06/26 11:38:51;;;;;;;7.40;3.20;;;24.70;98.60;;;;;;5003539;28;20138;-72
2022/06/26 11:41:17;;;;;;;5.68;3.25;;;24.80;96.90;;;;;;5007302;28;20064;-70
2022/06/26 11:43:48;;;;;;;5.68;3.65;;;24.80;97.10;;;;;;5006290;28;20046;-70
2022/06/26 11:46:14;;;;;;;5.18;3.55;;;24.80;99.30;;;;;;5005381;28;20121;-70
2022/06/26 11:48:40;;;;;;;5.28;3.72;;;24.80;96.70;;;;;;4999986;28;20042;-69
2022/06/26 11:51:14;;;;;;;5.43;3.17;;;24.90;96.60;;;;;;5004666;28;20045;-70
2022/06/26 11:53:44;;;;;;;7.10;3.50;;;24.90;97.00;;;;;;5003423;28;20065;-70
2022/06/26 11:56:11;;;;;;;5.72;3.10;;;24.90;97.90;;;;;;5004075;28;20049;-70
2022/06/26 11:58:37;;;;;;;5.28;3.20;;;25.00;98.20;;;;;;5004736;28;20053;-70
2022/06/26 12:01:08;;;;;;;5.90;3.47;;;25.20;99.00;;;;;;5004015;28;20092;-71
2022/06/26 12:03:47;;;;;;;4.85;3.50;;;25.30;98.30;;;;;;5002191;28;20485;-71
2022/06/26 12:06:32;;;;;;;4.50;3.50;;;25.40;97.90;;;;;;5004046;28;20046;-72
2022/06/26 12:09:19;;;;;;;4.60;2.80;;;25.60;98.00;;;;;;5000016;28;20096;-71
2022/06/26 12:11:46;;;;;;;5.50;3.00;;;25.70;96.70;;;;;;5003957;28;20460;-70
2022/06/26 12:14:15;;;;;;;5.53;2.67;;;25.80;97.20;;;;;;5004915;28;20050;-70
2022/06/26 12:17:07;;;;;;;4.55;2.67;;;25.90;96.40;;;;;;5004544;28;20042;-71
2022/06/26 12:19:39;;;;;;;5.80;3.15;;;25.90;92.20;;;;;;5001186;28;20101;-70
2022/06/26 12:22:05;;;;;;;6.32;2.72;;;25.90;94.50;;;;;;4991714;28;20050;-71
2022/06/26 12:24:30;;;;;;;4.93;2.70;;;25.90;95.90;;;;;;5007152;28;20378;-71
2022/06/26 12:27:01;;;;;;;6.78;3.10;;;25.90;94.10;;;;;;5004994;28;20060;-72
2022/06/26 12:29:33;;;;;;;5.22;2.90;;;25.90;94.10;;;;;;5000796;28;20050;-71
2022/06/26 12:32:02;;;;;;;5.82;2.90;;;25.90;95.50;;;;;;5003075;28;20050;-74
2022/06/26 12:34:27;;;;;;;5.88;3.47;;;25.90;94.30;;;;;;5005875;28;20478;-74
2022/06/26 12:36:53;;;;;;;4.25;2.90;;;25.90;92.70;;;;;;5003889;28;20050;-73
2022/06/26 12:39:19;;;;;;;6.03;2.87;;;25.80;92.70;;;;;;5007743;28;20038;-73
2022/06/26 12:41:53;;;;;;;7.50;3.20;;;25.70;93.40;;;;;;5008568;28;20859;-74
2022/06/26 12:44:18;;;;;;;4.43;3.30;;;25.60;94.80;;;;;;4995279;28;20057;-74
2022/06/26 12:46:44;;;;;;;5.03;3.22;;;25.60;93.50;;;;;;5009476;28;20033;-75
2022/06/26 12:49:10;;;;;;;5.38;3.38;;;25.50;91.70;;;;;;5011269;28;20823;-72
2022/06/26 12:51:36;;;;;;;4.70;3.00;;;25.30;91.50;;;;;;5008990;28;20030;-73
2022/06/26 12:54:01;;;;;;;5.70;3.10;;;25.20;94.30;;;;;;5011345;28;20129;-74